Search for airport 
image banner adimage banner ad
image banner ad

WBKK - Kota Kinabalu International

Located in Kota Kinabalu, Malaysia

ICAO - WBKK, IATA - BKI

Data provided by Airmate  

General information

Coordinates: N5°55'55" E116°3'1"
Elevation is 14 feet MSL.
 
Rated:
View ratings: [VIEW]


View others Airports in Sabah

Operational data

Open for public use
Current time UTC:
Current local time:
Weather
METAR: WBKK 211700Z VRB02KT 6000 FEW015 BKN270 26/24 Q1010 NOSIG
TAF: TAF WBKK 211100Z 2112/2212 11005KT 6000 FEW015 BECMG 2201/2203 30005KT
View NOTAMs / SUP AIP / TFR affecting this airport [VIEW]
Communications frequencies: [VIEW]

Runways:

RWY identifierQFULength (ft)Width (ft)SurfaceLDA (ft)
0223°12402148ASP
20203°12402148

Airport contact information

Address: Kota Kinabalu Malaysia

Satellite view of WBKK